createdAt,value
2018-11-03T00:00:00.497Z,10.57
2018-11-03T00:02:28.683Z,10.40
2018-11-03T00:04:56.816Z,13.13
2018-11-03T00:07:24.915Z,10.23
2018-11-03T00:09:53.011Z,11.23
2018-11-03T00:12:21.159Z,9.27
2018-11-03T00:14:49.266Z,8.60
2018-11-03T00:17:17.407Z,7.97
2018-11-03T00:19:45.504Z,10.23
2018-11-03T00:22:13.642Z,11.63
2018-11-03T00:24:41.747Z,9.23
2018-11-03T00:27:09.840Z,9.57
2018-11-03T00:29:37.967Z,11.97
2018-11-03T00:32:06.160Z,10.07
2018-11-03T00:34:34.309Z,9.10
2018-11-03T00:37:02.413Z,9.33
2018-11-03T00:39:30.491Z,9.23
2018-11-03T00:41:58.584Z,9.83
2018-11-03T00:44:26.705Z,8.53
2018-11-03T00:46:54.804Z,9.70
2018-11-03T00:49:22.901Z,11.47
2018-11-03T00:51:51.056Z,10.47
2018-11-03T00:54:19.140Z,9.97
2018-11-03T00:56:47.242Z,9.90
2018-11-03T00:59:15.501Z,9.77
2018-11-03T01:01:43.703Z,10.10
2018-11-03T01:04:11.807Z,9.53
2018-11-03T01:06:39.969Z,10.60
2018-11-03T01:09:08.551Z,10.57
2018-11-03T01:11:36.735Z,12.90
2018-11-03T01:14:04.838Z,10.50
2018-11-03T01:16:32.958Z,11.57
2018-11-03T01:19:01.126Z,11.93
2018-11-03T01:21:29.210Z,12.57
2018-11-03T01:23:57.365Z,10.73
2018-11-03T01:26:25.499Z,13.70
2018-11-03T01:28:53.593Z,13.20
2018-11-03T01:31:21.715Z,12.97
2018-11-03T01:33:49.876Z,12.13
2018-11-03T01:36:18.068Z,14.07
2018-11-03T01:38:46.266Z,12.07
2018-11-03T01:41:14.359Z,12.40
2018-11-03T01:43:42.474Z,13.33
2018-11-03T01:46:10.764Z,13.83
2018-11-03T01:48:38.863Z,12.93
2018-11-03T01:51:07.004Z,14.43
2018-11-03T01:53:35.131Z,14.97
2018-11-03T01:56:03.257Z,13.43
2018-11-03T01:58:31.430Z,13.07
2018-11-03T02:00:59.645Z,13.70
2018-11-03T02:03:27.767Z,15.57
2018-11-03T02:05:55.858Z,16.27
2018-11-03T02:08:24.024Z,17.23
2018-11-03T02:10:52.226Z,19.10
2018-11-03T02:13:20.369Z,17.80
2018-11-03T02:15:48.474Z,15.70
2018-11-03T02:18:17.491Z,17.60
2018-11-03T02:20:45.599Z,15.60
2018-11-03T02:23:13.740Z,16.03
2018-11-03T02:25:41.859Z,16.17
2018-11-03T02:28:09.961Z,14.70
2018-11-03T02:30:38.109Z,17.77
2018-11-03T02:33:06.303Z,14.83
2018-11-03T02:35:34.446Z,18.87
2018-11-03T02:38:02.563Z,16.73
2018-11-03T02:40:30.690Z,15.57
2018-11-03T02:42:58.920Z,15.00
2018-11-03T02:45:27.054Z,14.10
2018-11-03T02:47:55.145Z,18.20
2018-11-03T02:50:23.319Z,15.73
2018-11-03T02:52:51.462Z,17.83
2018-11-03T02:55:19.560Z,15.43
2018-11-03T02:57:47.720Z,13.97
2018-11-03T03:00:15.907Z,15.27
2018-11-03T03:02:44.056Z,16.37
2018-11-03T03:05:12.159Z,15.30
2018-11-03T03:07:40.605Z,18.73
2018-11-03T03:10:09.919Z,14.53
2018-11-03T03:12:38.303Z,16.00
2018-11-03T03:15:07.220Z,16.60
2018-11-03T03:17:35.324Z,18.70
2018-11-03T03:20:03.666Z,18.50
2018-11-03T03:22:31.826Z,16.13
2018-11-03T03:24:59.944Z,15.33
2018-11-03T03:27:28.046Z,16.70
2018-11-03T03:29:56.200Z,17.67
2018-11-03T03:32:24.319Z,15.90
2018-11-03T03:34:52.479Z,17.00
2018-11-03T03:37:20.656Z,15.90
2018-11-03T03:39:48.774Z,18.67
2018-11-03T03:42:17.016Z,16.60
2018-11-03T03:44:45.108Z,15.93
2018-11-03T03:47:13.202Z,17.13
2018-11-03T03:49:41.328Z,16.87
2018-11-03T03:52:09.490Z,18.33
2018-11-03T03:54:37.609Z,17.30
2018-11-03T03:57:05.716Z,16.90
2018-11-03T03:59:33.909Z,18.00
2018-11-03T04:02:02.017Z,18.37
2018-11-03T04:04:30.298Z,17.93
2018-11-03T04:06:58.526Z,19.53
2018-11-03T04:09:26.627Z,18.57
2018-11-03T04:11:54.736Z,18.03
2018-11-03T04:14:22.848Z,17.87
2018-11-03T04:16:51.206Z,21.07
2018-11-03T04:19:19.327Z,17.50
2018-11-03T04:21:47.426Z,19.73
2018-11-03T04:24:15.531Z,26.50
2018-11-03T04:26:43.617Z,23.80
2018-11-03T04:29:11.789Z,23.63
2018-11-03T04:31:39.908Z,25.17
2018-11-03T04:34:08.065Z,22.07
2018-11-03T04:36:36.213Z,19.60
2018-11-03T04:39:05.044Z,18.20
2018-11-03T04:41:33.179Z,20.10
2018-11-03T04:44:01.290Z,23.33
2018-11-03T04:46:29.527Z,22.67
2018-11-03T04:49:03.630Z,24.13
2018-11-03T04:51:33.246Z,24.80
2018-11-03T04:54:01.359Z,23.57
2018-11-03T04:56:29.526Z,22.50
2018-11-03T04:58:57.871Z,24.07
2018-11-03T05:01:26.143Z,25.23
2018-11-03T05:03:54.230Z,24.50
2018-11-03T05:06:22.351Z,21.37
2018-11-03T05:08:50.462Z,22.87
2018-11-03T05:11:18.572Z,26.00
2018-11-03T05:13:46.659Z,25.20
2018-11-03T05:16:14.770Z,25.47
2018-11-03T05:18:42.853Z,25.40
2018-11-03T05:21:11.170Z,24.23
2018-11-03T05:23:39.207Z,23.23
2018-11-03T05:26:07.380Z,27.93
2018-11-03T05:28:35.543Z,35.50
2018-11-03T05:31:03.701Z,28.70
2018-11-03T05:33:31.802Z,28.47
2018-11-03T05:36:00.906Z,28.17
2018-11-03T05:38:29.098Z,28.70
2018-11-03T05:40:57.182Z,26.57
2018-11-03T05:43:25.430Z,28.57
2018-11-03T05:45:53.704Z,26.37
2018-11-03T05:48:21.876Z,25.03
2018-11-03T05:50:49.973Z,25.90
2018-11-03T05:53:18.099Z,30.00
2018-11-03T05:55:46.199Z,35.17
2018-11-03T05:58:14.351Z,34.40
2018-11-03T06:00:42.442Z,34.23
2018-11-03T06:03:10.545Z,35.93
2018-11-03T06:05:38.699Z,33.60
2018-11-03T06:08:06.789Z,37.67
2018-11-03T06:10:34.960Z,30.10
2018-11-03T06:13:03.080Z,31.77
2018-11-03T06:15:31.292Z,33.30
2018-11-03T06:17:59.306Z,29.47
2018-11-03T06:20:27.437Z,34.57
2018-11-03T06:22:55.604Z,28.67
2018-11-03T06:25:23.679Z,33.17
2018-11-03T06:27:51.824Z,30.30
2018-11-03T06:30:19.931Z,34.10
2018-11-03T06:32:48.076Z,34.23
2018-11-03T06:35:16.229Z,33.00
2018-11-03T06:37:44.323Z,31.60
2018-11-03T06:40:12.417Z,33.53
2018-11-03T06:42:40.567Z,35.93
2018-11-03T06:45:09.250Z,28.30
2018-11-03T06:47:37.571Z,29.87
2018-11-03T06:50:06.385Z,31.23
2018-11-03T06:52:34.563Z,29.30
2018-11-03T06:55:02.660Z,32.97
2018-11-03T06:57:30.802Z,31.47
2018-11-03T06:59:58.975Z,33.37
2018-11-03T07:02:27.162Z,31.60
2018-11-03T07:04:55.441Z,31.60
2018-11-03T07:07:23.425Z,29.37
2018-11-03T07:09:51.563Z,37.30
2018-11-03T07:12:19.833Z,30.70
2018-11-03T07:14:47.830Z,26.47
2018-11-03T07:17:16.176Z,30.07
2018-11-03T07:19:44.330Z,32.60
2018-11-03T07:22:12.443Z,33.07
2018-11-03T07:24:40.591Z,27.47
2018-11-03T07:27:08.770Z,29.07
2018-11-03T07:29:36.933Z,27.23
2018-11-03T07:32:05.884Z,31.67
2018-11-03T07:34:34.007Z,29.43
2018-11-03T07:37:02.528Z,29.13
2018-11-03T07:39:30.626Z,30.93
2018-11-03T07:41:58.743Z,30.90
2018-11-03T07:44:26.907Z,34.97
2018-11-03T07:46:55.122Z,36.27
2018-11-03T07:49:23.343Z,32.03
2018-11-03T07:51:51.544Z,33.53
2018-11-03T07:54:19.752Z,36.13
2018-11-03T07:56:47.839Z,34.63
2018-11-03T07:59:16.026Z,37.97
2018-11-03T08:01:44.302Z,34.83
2018-11-03T08:04:12.419Z,35.83
2018-11-03T08:06:40.539Z,37.77
2018-11-03T08:09:09.466Z,34.33
2018-11-03T08:11:37.589Z,35.00
2018-11-03T08:14:05.860Z,37.87
2018-11-03T08:16:34.035Z,35.70
2018-11-03T08:19:02.311Z,33.27
2018-11-03T08:21:30.414Z,33.13
2018-11-03T08:23:58.980Z,32.23
2018-11-03T08:26:27.335Z,31.97
2018-11-03T08:28:55.507Z,32.53
2018-11-03T08:31:23.623Z,29.37
2018-11-03T08:33:51.803Z,33.17
2018-11-03T08:36:20.321Z,29.53
2018-11-03T08:38:48.538Z,31.73
2018-11-03T08:41:16.722Z,26.03
2018-11-03T08:43:44.875Z,26.10
2018-11-03T08:46:13.045Z,30.33
2018-11-03T08:48:41.340Z,29.90
2018-11-03T08:51:09.480Z,27.43
2018-11-03T08:53:37.639Z,26.90
2018-11-03T08:56:05.835Z,25.47
2018-11-03T08:58:33.955Z,24.97
2018-11-03T09:01:02.089Z,24.77
2018-11-03T09:03:30.205Z,24.13
2018-11-03T09:05:58.318Z,22.17
2018-11-03T09:08:26.438Z,22.33
2018-11-03T09:10:54.575Z,21.53
2018-11-03T09:13:22.743Z,24.20
2018-11-03T09:15:50.859Z,22.47
2018-11-03T09:18:18.951Z,22.83
2018-11-03T09:20:47.109Z,26.10
2018-11-03T09:23:15.230Z,24.40
2018-11-03T09:25:43.346Z,24.83
2018-11-03T09:28:11.552Z,22.20
2018-11-03T09:30:39.801Z,24.87
2018-11-03T09:33:07.955Z,24.03
2018-11-03T09:35:36.094Z,26.03
2018-11-03T09:38:04.203Z,24.10
2018-11-03T09:40:32.352Z,23.40
2018-11-03T09:43:00.570Z,21.10
2018-11-03T09:45:28.744Z,22.23
2018-11-03T09:47:56.898Z,26.67
2018-11-03T09:50:25.020Z,19.57
2018-11-03T09:52:53.132Z,20.40
2018-11-03T09:55:21.342Z,22.03
2018-11-03T09:57:49.580Z,25.23
2018-11-03T10:00:19.229Z,20.90
2018-11-03T10:02:47.376Z,22.03
2018-11-03T10:05:15.964Z,15.90
2018-11-03T10:07:44.177Z,20.00
2018-11-03T10:10:15.605Z,17.30
2018-11-03T10:12:44.358Z,22.00
2018-11-03T10:15:13.887Z,17.17
2018-11-03T10:17:42.552Z,17.80
2018-11-03T10:20:10.667Z,14.30
2018-11-03T10:22:38.884Z,14.40
2018-11-03T10:25:08.024Z,13.63
2018-11-03T10:27:36.189Z,14.53
2018-11-03T10:30:04.308Z,17.03
2018-11-03T10:32:32.411Z,15.40
2018-11-03T10:35:00.532Z,16.57
2018-11-03T10:37:28.669Z,14.23
2018-11-03T10:42:41.833Z,14.47
2018-11-03T10:45:11.420Z,15.00
2018-11-03T10:47:39.930Z,16.33
2018-11-03T10:52:52.788Z,15.30
2018-11-03T10:55:20.908Z,12.43
2018-11-03T10:57:49.067Z,10.73
2018-11-03T11:00:23.368Z,12.33
2018-11-03T11:02:57.290Z,12.70
2018-11-03T11:05:30.884Z,9.37
2018-11-03T11:08:04.502Z,10.73
2018-11-03T11:10:38.111Z,9.57
2018-11-03T11:13:11.642Z,9.03
2018-11-03T11:15:39.941Z,8.80
2018-11-03T11:18:07.972Z,11.47
2018-11-03T11:20:36.166Z,9.93
2018-11-03T11:23:04.547Z,8.90
2018-11-03T11:25:32.913Z,9.97
2018-11-03T11:31:08.502Z,7.20
2018-11-03T11:33:36.638Z,8.00
2018-11-03T11:36:05.039Z,9.07
2018-11-03T11:38:33.190Z,6.17
2018-11-03T11:41:01.366Z,9.43
2018-11-03T11:43:29.571Z,8.67
2018-11-03T11:45:57.718Z,5.53
2018-11-03T11:48:26.100Z,6.73
2018-11-03T11:50:54.206Z,6.40
2018-11-03T11:53:22.336Z,7.53
2018-11-03T11:55:50.495Z,8.77
2018-11-03T11:58:18.728Z,6.17
2018-11-03T12:00:47.037Z,7.80
2018-11-03T12:03:15.027Z,6.43
2018-11-03T12:05:43.253Z,7.23
2018-11-03T12:08:11.357Z,6.87
2018-11-03T12:10:39.551Z,6.77
2018-11-03T12:13:07.724Z,10.17
2018-11-03T12:15:35.901Z,7.77
2018-11-03T12:18:04.130Z,8.57
2018-11-03T12:20:32.336Z,7.53
2018-11-03T12:23:00.480Z,8.33
2018-11-03T12:25:28.658Z,6.33
2018-11-03T12:27:56.985Z,6.10
2018-11-03T12:30:25.141Z,6.97
2018-11-03T12:32:53.275Z,7.03
2018-11-03T12:35:21.445Z,6.83
2018-11-03T12:37:49.683Z,7.43
2018-11-03T12:40:17.809Z,6.70
2018-11-03T12:42:45.927Z,6.50
2018-11-03T12:45:14.160Z,7.43
2018-11-03T12:47:42.451Z,8.60
2018-11-03T12:50:12.503Z,8.17
2018-11-03T12:52:40.630Z,8.77
2018-11-03T12:55:09.133Z,7.83
2018-11-03T12:57:37.500Z,9.13
2018-11-03T13:00:06.596Z,10.27
2018-11-03T13:02:34.712Z,8.10
2018-11-03T13:05:02.881Z,8.10
2018-11-03T13:07:30.912Z,8.83
2018-11-03T13:09:59.076Z,10.43
2018-11-03T13:12:27.226Z,8.93
2018-11-03T13:14:55.349Z,9.47
2018-11-03T13:17:23.472Z,9.83
2018-11-03T13:19:51.678Z,8.70
2018-11-03T13:22:19.906Z,8.87
2018-11-03T13:24:48.093Z,10.93
2018-11-03T13:27:16.181Z,10.73
2018-11-03T13:29:44.332Z,7.87
2018-11-03T13:32:12.503Z,9.27
2018-11-03T13:34:40.608Z,9.20
2018-11-03T13:37:08.768Z,9.50
2018-11-03T13:39:37.041Z,9.53
2018-11-03T13:42:05.562Z,12.63
2018-11-03T13:44:33.700Z,8.47
2018-11-03T13:47:02.553Z,8.97
2018-11-03T13:49:30.685Z,8.33
2018-11-03T13:51:58.933Z,12.17
2018-11-03T13:54:27.040Z,12.40
2018-11-03T13:56:55.192Z,13.73
2018-11-03T13:59:23.318Z,10.63
2018-11-03T14:01:51.557Z,14.87
2018-11-03T14:04:19.726Z,14.00
2018-11-03T14:06:47.905Z,13.73
2018-11-03T14:09:16.062Z,12.90
2018-11-03T14:11:44.340Z,11.67
2018-11-03T14:14:12.515Z,12.87
2018-11-03T14:16:40.755Z,12.07
2018-11-03T14:19:08.904Z,13.13
2018-11-03T14:21:37.227Z,12.60
2018-11-03T14:24:05.435Z,14.63
2018-11-03T14:26:33.707Z,15.37
2018-11-03T14:31:30.043Z,15.40
2018-11-03T14:33:58.192Z,18.17
2018-11-03T14:36:26.504Z,13.73
2018-11-03T14:38:54.624Z,16.10
2018-11-03T14:41:22.731Z,21.50
2018-11-03T14:43:50.878Z,17.17
2018-11-03T14:46:18.996Z,17.53
2018-11-03T14:48:47.137Z,16.47
2018-11-03T14:51:15.316Z,19.10
2018-11-03T14:53:43.469Z,16.47
2018-11-03T14:56:11.671Z,19.07
2018-11-03T14:58:39.836Z,16.07
2018-11-03T15:01:08.043Z,16.00
2018-11-03T15:03:36.195Z,16.83
2018-11-03T15:06:04.359Z,17.77
2018-11-03T15:08:32.932Z,19.03
2018-11-03T15:11:01.006Z,16.67
2018-11-03T15:13:29.119Z,18.63
2018-11-03T15:15:57.246Z,16.53
2018-11-03T15:18:25.411Z,20.40
2018-11-03T15:20:53.535Z,18.93
2018-11-03T15:23:21.675Z,17.23
2018-11-03T15:25:49.784Z,16.57
2018-11-03T15:28:17.947Z,19.87
2018-11-03T15:30:46.115Z,17.10
2018-11-03T15:33:14.300Z,19.77
2018-11-03T15:35:42.472Z,21.87
2018-11-03T15:38:10.556Z,18.80
2018-11-03T15:40:38.690Z,18.97
2018-11-03T15:43:06.848Z,21.37
2018-11-03T15:45:34.995Z,21.33
2018-11-03T15:48:03.097Z,24.27
2018-11-03T15:50:31.229Z,25.37
2018-11-03T15:52:59.368Z,21.90
2018-11-03T15:55:27.475Z,26.23
2018-11-03T15:57:55.587Z,21.23
2018-11-03T16:00:23.773Z,22.50
2018-11-03T16:02:51.921Z,19.30
2018-11-03T16:05:20.635Z,20.50
2018-11-03T16:07:48.806Z,21.73
2018-11-03T16:10:16.990Z,24.17
2018-11-03T16:12:45.308Z,22.60
2018-11-03T16:15:13.721Z,20.17
2018-11-03T16:17:42.413Z,23.70
2018-11-03T16:20:11.826Z,24.30
2018-11-03T16:22:40.079Z,26.20
2018-11-03T16:25:08.883Z,23.20
2018-11-03T16:27:37.255Z,21.20
2018-11-03T16:30:06.700Z,20.43
2018-11-03T16:32:35.032Z,24.53
2018-11-03T16:35:02.939Z,24.43
2018-11-03T16:37:31.097Z,23.13
2018-11-03T16:39:59.298Z,23.37
2018-11-03T16:42:27.428Z,23.37
2018-11-03T16:44:55.536Z,23.33
2018-11-03T16:47:23.879Z,23.57
2018-11-03T16:49:52.079Z,24.70
2018-11-03T16:52:20.233Z,24.53
2018-11-03T16:54:48.331Z,21.80
2018-11-03T16:57:16.429Z,23.97
2018-11-03T16:59:44.556Z,22.70
2018-11-03T17:02:13.030Z,25.63
2018-11-03T17:04:41.270Z,27.00
2018-11-03T17:07:09.405Z,25.30
2018-11-03T17:09:37.981Z,26.63
2018-11-03T17:12:06.157Z,26.40
2018-11-03T17:14:34.322Z,27.17
2018-11-03T17:17:02.422Z,28.87
2018-11-03T17:19:30.538Z,32.40
2018-11-03T17:21:58.634Z,29.30
2018-11-03T17:24:26.733Z,23.63
2018-11-03T17:26:54.844Z,29.53
2018-11-03T17:29:22.966Z,24.10
2018-11-03T17:31:51.161Z,25.90
2018-11-03T17:34:19.327Z,23.83
2018-11-03T17:36:47.465Z,27.17
2018-11-03T17:39:15.581Z,27.13
2018-11-03T17:41:43.673Z,26.70
2018-11-03T17:44:11.884Z,26.33
2018-11-03T17:46:39.907Z,26.90
2018-11-03T17:49:08.064Z,26.10
2018-11-03T17:51:36.212Z,24.20
2018-11-03T17:54:04.630Z,26.63
2018-11-03T17:56:32.766Z,29.73
2018-11-03T17:59:00.948Z,25.47
2018-11-03T18:01:29.205Z,30.20
2018-11-03T18:03:57.171Z,27.73
2018-11-03T18:06:25.357Z,28.57
2018-11-03T18:08:53.542Z,29.70
2018-11-03T18:11:21.715Z,27.40
2018-11-03T18:13:50.175Z,24.77
2018-11-03T18:16:18.497Z,31.50
2018-11-03T18:18:46.643Z,26.47
2018-11-03T18:21:14.791Z,26.67
2018-11-03T18:23:42.897Z,28.43
2018-11-03T18:26:11.395Z,27.93
2018-11-03T18:28:39.526Z,22.87
2018-11-03T18:31:07.659Z,28.60
2018-11-03T18:33:36.017Z,27.17
2018-11-03T18:36:04.203Z,25.63
2018-11-03T18:38:32.349Z,23.80
2018-11-03T18:41:00.447Z,22.83
2018-11-03T18:43:28.755Z,23.87
2018-11-03T18:45:56.869Z,25.67
2018-11-03T18:48:25.055Z,24.63
2018-11-03T18:50:53.147Z,22.47
2018-11-03T18:53:21.348Z,26.03
2018-11-03T18:55:49.476Z,27.30
2018-11-03T18:58:17.634Z,24.73
2018-11-03T19:00:45.802Z,22.60
2018-11-03T19:03:13.917Z,24.80
2018-11-03T19:05:42.054Z,27.03
2018-11-03T19:08:10.207Z,25.47
2018-11-03T19:10:38.336Z,28.03
2018-11-03T19:13:06.591Z,27.80
2018-11-03T19:15:34.661Z,28.50
2018-11-03T19:18:02.812Z,31.63
2018-11-03T19:20:30.957Z,31.23
2018-11-03T19:22:59.096Z,29.23
2018-11-03T19:25:27.271Z,32.63
2018-11-03T19:27:55.408Z,24.90
2018-11-03T19:30:23.726Z,28.77
2018-11-03T19:32:51.778Z,24.60
2018-11-03T19:35:19.927Z,26.93
2018-11-03T19:37:48.148Z,32.50
2018-11-03T19:40:16.580Z,31.57
2018-11-03T19:42:44.727Z,30.80
2018-11-03T19:45:13.280Z,27.87
2018-11-03T19:47:41.444Z,28.33
2018-11-03T19:50:10.103Z,28.30
2018-11-03T19:52:38.278Z,27.03
2018-11-03T19:55:06.639Z,26.80
2018-11-03T19:57:35.068Z,26.20
2018-11-03T20:00:03.314Z,30.23
2018-11-03T20:02:32.172Z,28.87
2018-11-03T20:05:00.315Z,34.47
2018-11-03T20:07:28.448Z,27.93
2018-11-03T20:09:56.703Z,27.30
2018-11-03T20:12:24.789Z,31.00
2018-11-03T20:14:52.899Z,28.00
2018-11-03T20:17:21.047Z,29.43
2018-11-03T20:19:49.211Z,28.23
2018-11-03T20:22:17.488Z,35.07
2018-11-03T20:24:46.178Z,29.73
2018-11-03T20:27:14.467Z,32.73
2018-11-03T20:29:42.631Z,31.07
2018-11-03T20:32:10.738Z,32.03
2018-11-03T20:34:38.907Z,34.10
2018-11-03T20:37:07.576Z,30.60
2018-11-03T20:39:35.841Z,32.23
2018-11-03T20:42:04.311Z,38.03
2018-11-03T20:44:32.504Z,31.80
2018-11-03T20:47:00.680Z,34.67
2018-11-03T20:49:28.889Z,37.03
2018-11-03T20:51:57.017Z,35.53
2018-11-03T20:54:25.186Z,28.33
2018-11-03T20:56:53.297Z,31.63
2018-11-03T20:59:21.444Z,30.00
2018-11-03T21:01:49.722Z,31.97
2018-11-03T21:04:17.931Z,30.40
2018-11-03T21:06:46.072Z,31.70
2018-11-03T21:09:14.229Z,33.23
2018-11-03T21:11:42.395Z,29.37
2018-11-03T21:14:10.513Z,29.80
2018-11-03T21:16:38.688Z,31.47
2018-11-03T21:19:07.239Z,31.03
2018-11-03T21:21:35.420Z,30.60
2018-11-03T21:24:03.796Z,31.83
2018-11-03T21:26:31.750Z,31.13
2018-11-03T21:28:59.872Z,29.60
2018-11-03T21:31:28.007Z,29.27
2018-11-03T21:33:56.186Z,28.97
2018-11-03T21:36:24.344Z,32.07
2018-11-03T21:38:52.585Z,35.03
2018-11-03T21:41:20.698Z,35.37
2018-11-03T21:43:48.898Z,30.73
2018-11-03T21:46:17.027Z,34.63
2018-11-03T21:48:45.226Z,31.77
2018-11-03T21:51:13.328Z,33.33
2018-11-03T21:53:41.459Z,33.87
2018-11-03T21:56:09.711Z,33.20
2018-11-03T21:58:37.916Z,33.37
2018-11-03T22:01:06.083Z,33.37
2018-11-03T22:03:34.185Z,36.23
2018-11-03T22:06:02.460Z,35.57
2018-11-03T22:08:30.817Z,34.20
2018-11-03T22:10:58.992Z,31.00
2018-11-03T22:13:27.099Z,31.40
2018-11-03T22:15:55.268Z,33.50
2018-11-03T22:18:23.354Z,35.30
2018-11-03T22:20:51.487Z,34.70
2018-11-03T22:23:19.604Z,32.97
2018-11-03T22:25:47.747Z,34.63
2018-11-03T22:28:15.848Z,32.47
2018-11-03T22:30:43.957Z,32.97
2018-11-03T22:33:12.066Z,38.47
2018-11-03T22:35:40.227Z,33.90
2018-11-03T22:38:08.335Z,38.57
2018-11-03T22:40:36.501Z,36.30
2018-11-03T22:43:04.752Z,34.77
2018-11-03T22:45:33.117Z,40.00
2018-11-03T22:48:01.300Z,36.97
2018-11-03T22:50:29.403Z,39.47
2018-11-03T22:52:57.547Z,34.83
2018-11-03T22:55:25.656Z,41.50
2018-11-03T22:57:53.802Z,39.47
2018-11-03T23:00:21.963Z,40.00
2018-11-03T23:02:50.108Z,40.23
2018-11-03T23:05:18.220Z,39.47
2018-11-03T23:07:46.412Z,37.00
2018-11-03T23:10:14.492Z,37.23
2018-11-03T23:12:42.665Z,36.60
2018-11-03T23:15:11.199Z,38.60
2018-11-03T23:17:39.319Z,38.83
2018-11-03T23:20:08.687Z,36.40
2018-11-03T23:22:36.895Z,37.80
2018-11-03T23:25:05.367Z,37.33
2018-11-03T23:27:33.504Z,39.13
2018-11-03T23:30:01.742Z,40.20
2018-11-03T23:32:29.771Z,38.37
2018-11-03T23:34:57.860Z,40.00
2018-11-03T23:37:26.051Z,42.00
2018-11-03T23:39:54.194Z,41.87
2018-11-03T23:42:22.392Z,43.03
2018-11-03T23:44:50.539Z,45.37
2018-11-03T23:47:18.670Z,39.60
2018-11-03T23:49:46.812Z,41.13
2018-11-03T23:52:14.955Z,43.40
2018-11-03T23:54:43.047Z,42.73
2018-11-03T23:57:11.187Z,41.33
2018-11-03T23:59:39.338Z,44.27
